createdAt,value
2023-04-06T00:00:13.509Z,320
2023-04-06T00:02:19.897Z,319
2023-04-06T00:04:26.917Z,319
2023-04-06T00:06:33.892Z,319
2023-04-06T00:08:40.103Z,320
2023-04-06T00:10:46.446Z,320
2023-04-06T00:12:53.304Z,319
2023-04-06T00:14:59.806Z,320
2023-04-06T00:17:07.087Z,319
2023-04-06T00:19:13.350Z,319
2023-04-06T00:21:20.555Z,319
2023-04-06T00:23:27.348Z,319
2023-04-06T00:25:33.673Z,319
2023-04-06T00:27:40.880Z,320
2023-04-06T00:29:48.122Z,320
2023-04-06T00:31:55.205Z,320
2023-04-06T00:34:01.890Z,319
2023-04-06T00:36:08.418Z,319
2023-04-06T00:38:15.419Z,319
2023-04-06T00:40:22.019Z,319
2023-04-06T00:42:29.052Z,319
2023-04-06T00:44:36.459Z,320
2023-04-06T00:46:42.716Z,320
2023-04-06T00:48:49.768Z,319
2023-04-06T00:50:56.710Z,319
2023-04-06T00:53:03.587Z,319
2023-04-06T00:55:09.724Z,320
2023-04-06T00:57:16.906Z,320
2023-04-06T00:59:23.334Z,320
2023-04-06T01:01:30.112Z,319
2023-04-06T01:03:37.206Z,322
2023-04-06T01:05:43.893Z,308
2023-04-06T01:07:51.126Z,308
2023-04-06T01:09:58.548Z,308
2023-04-06T01:12:05.063Z,321
2023-04-06T01:14:12.203Z,322
2023-04-06T01:16:19.727Z,321
2023-04-06T01:18:26.911Z,322
2023-04-06T01:20:33.726Z,322
2023-04-06T01:22:40.186Z,322
2023-04-06T01:24:46.919Z,322
2023-04-06T01:26:53.240Z,322
2023-04-06T01:28:59.961Z,322
2023-04-06T01:31:07.285Z,322
2023-04-06T01:33:14.069Z,325
2023-04-06T01:35:20.850Z,324
2023-04-06T01:37:27.392Z,324
2023-04-06T01:39:33.793Z,324
2023-04-06T01:41:41.045Z,324
2023-04-06T01:43:47.665Z,324
2023-04-06T01:45:54.064Z,324
2023-04-06T01:48:01.013Z,322
2023-04-06T01:50:07.604Z,324
2023-04-06T01:52:14.270Z,324
2023-04-06T01:54:21.494Z,322
2023-04-06T01:56:28.268Z,322
2023-04-06T01:58:34.664Z,322
2023-04-06T02:00:41.892Z,322
2023-04-06T02:02:51.356Z,321
2023-04-06T02:04:58.497Z,322
2023-04-06T02:07:05.508Z,322
2023-04-06T02:09:13.099Z,322
2023-04-06T02:11:19.435Z,322
2023-04-06T02:13:26.747Z,321
2023-04-06T02:15:33.220Z,322
2023-04-06T02:17:40.010Z,322
2023-04-06T02:19:46.316Z,322
2023-04-06T02:21:54.424Z,322
2023-04-06T02:24:01.433Z,322
2023-04-06T02:26:08.021Z,322
2023-04-06T02:28:14.913Z,322
2023-04-06T02:30:20.990Z,322
2023-04-06T02:32:28.292Z,322
2023-04-06T02:34:35.727Z,324
2023-04-06T02:36:42.432Z,324
2023-04-06T02:38:49.632Z,325
2023-04-06T02:40:56.206Z,324
2023-04-06T02:43:02.906Z,324
2023-04-06T02:45:09.058Z,322
2023-04-06T02:47:15.723Z,324
2023-04-06T02:49:21.855Z,325
2023-04-06T02:51:28.356Z,324
2023-04-06T02:53:35.409Z,324
2023-04-06T02:55:41.710Z,324
2023-04-06T02:57:47.874Z,325
2023-04-06T02:59:54.472Z,324
2023-04-06T03:02:01.238Z,324
2023-04-06T03:04:08.328Z,324
2023-04-06T03:06:15.757Z,324
2023-04-06T03:08:22.244Z,324
2023-04-06T03:10:29.719Z,325
2023-04-06T03:12:36.213Z,325
2023-04-06T03:14:42.905Z,324
2023-04-06T03:16:49.521Z,324
2023-04-06T03:18:56.301Z,325
2023-04-06T03:21:02.813Z,325
2023-04-06T03:23:10.421Z,325
2023-04-06T03:25:17.204Z,325
2023-04-06T03:27:23.618Z,325
2023-04-06T03:29:30.811Z,308
2023-04-06T03:31:37.221Z,325
2023-04-06T03:33:43.776Z,322
2023-04-06T03:35:51.390Z,322
2023-04-06T03:37:57.984Z,322
2023-04-06T03:40:04.864Z,322
2023-04-06T03:42:11.544Z,322
2023-04-06T03:44:18.605Z,322
2023-04-06T03:46:26.277Z,322
2023-04-06T03:48:32.764Z,325
2023-04-06T03:50:39.248Z,325
2023-04-06T03:52:46.215Z,324
2023-04-06T03:54:53.202Z,325
2023-04-06T03:57:00.467Z,325
2023-04-06T03:59:08.093Z,325
2023-04-06T04:01:15.315Z,325
2023-04-06T04:03:22.453Z,325
2023-04-06T04:05:29.321Z,325
2023-04-06T04:07:36.492Z,324
2023-04-06T04:09:47.098Z,322
2023-04-06T04:11:53.233Z,324
2023-04-06T04:13:59.873Z,324
2023-04-06T04:16:07.468Z,325
2023-04-06T04:18:14.063Z,325
2023-04-06T04:20:20.560Z,325
2023-04-06T04:22:26.950Z,325
2023-04-06T04:24:33.979Z,325
2023-04-06T04:26:41.158Z,325
2023-04-06T04:28:47.273Z,325
2023-04-06T04:30:54.318Z,325
2023-04-06T04:33:01.116Z,324
2023-04-06T04:35:07.950Z,324
2023-04-06T04:37:14.962Z,324
2023-04-06T04:39:21.551Z,325
2023-04-06T04:41:27.957Z,324
2023-04-06T04:43:35.968Z,324
2023-04-06T04:45:42.836Z,324
2023-04-06T04:47:49.790Z,324
2023-04-06T04:49:57.176Z,325
2023-04-06T04:52:04.022Z,324
2023-04-06T04:54:10.350Z,324
2023-04-06T04:56:17.652Z,325
2023-04-06T04:58:23.988Z,324
2023-04-06T05:00:30.478Z,322
2023-04-06T05:02:37.390Z,324
2023-04-06T05:04:44.800Z,325
2023-04-06T05:06:52.511Z,325
2023-04-06T05:08:59.260Z,325
2023-04-06T05:11:05.824Z,325
2023-04-06T05:13:12.414Z,325
2023-04-06T05:15:19.040Z,325
2023-04-06T05:17:26.046Z,325
2023-04-06T05:19:32.699Z,325
2023-04-06T05:21:39.384Z,325
2023-04-06T05:23:46.223Z,325
2023-04-06T05:25:53.181Z,325
2023-04-06T05:28:01.146Z,325
2023-04-06T05:30:08.278Z,325
2023-04-06T05:32:16.123Z,325
2023-04-06T05:34:22.770Z,325
2023-04-06T05:36:29.809Z,326
2023-04-06T05:38:36.627Z,326
2023-04-06T05:40:43.025Z,325
2023-04-06T05:42:50.223Z,326
2023-04-06T05:44:56.868Z,326
2023-04-06T05:47:03.701Z,326
2023-04-06T05:49:11.448Z,326
2023-04-06T05:51:19.029Z,325
2023-04-06T05:53:25.676Z,325
2023-04-06T05:55:32.416Z,326
2023-04-06T05:57:39.426Z,326
2023-04-06T05:59:46.872Z,326
2023-04-06T06:01:53.420Z,326
2023-04-06T06:04:00.140Z,325
2023-04-06T06:06:08.810Z,326
2023-04-06T06:08:16.122Z,326
2023-04-06T06:10:23.390Z,326
2023-04-06T06:12:30.368Z,326
2023-04-06T06:14:37.122Z,326
2023-04-06T06:16:44.455Z,325
2023-04-06T06:18:51.488Z,325
2023-04-06T06:20:58.170Z,325
2023-04-06T06:23:05.099Z,325
2023-04-06T06:25:12.656Z,325
2023-04-06T06:27:19.937Z,325
2023-04-06T06:29:26.983Z,325
2023-04-06T06:31:34.676Z,325
2023-04-06T06:33:41.828Z,325
2023-04-06T06:35:48.771Z,325
2023-04-06T06:37:56.669Z,325
2023-04-06T06:40:03.712Z,325
2023-04-06T06:42:10.182Z,325
2023-04-06T06:44:19.479Z,325
2023-04-06T06:46:26.464Z,325
2023-04-06T06:48:34.352Z,325
2023-04-06T06:50:43.544Z,326
2023-04-06T06:52:50.959Z,325
2023-04-06T06:55:00.580Z,325
2023-04-06T06:57:07.844Z,325
2023-04-06T06:59:14.533Z,325
2023-04-06T07:01:21.108Z,325
2023-04-06T07:03:29.544Z,325
2023-04-06T07:05:42.588Z,325
2023-04-06T07:07:50.037Z,325
2023-04-06T07:09:56.716Z,326
2023-04-06T07:12:02.890Z,325
2023-04-06T07:14:11.776Z,325
2023-04-06T07:16:19.788Z,325
2023-04-06T07:18:27.444Z,326
2023-04-06T07:20:38.670Z,326
2023-04-06T07:22:46.673Z,326
2023-04-06T07:24:54.218Z,326
2023-04-06T07:27:01.713Z,326
2023-04-06T07:29:09.547Z,326
2023-04-06T07:31:17.772Z,326
2023-04-06T07:33:25.181Z,326
2023-04-06T07:35:33.568Z,325
2023-04-06T07:37:41.168Z,326
2023-04-06T07:39:50.514Z,326
2023-04-06T07:41:57.639Z,325
2023-04-06T07:44:06.463Z,326
2023-04-06T07:46:13.661Z,326
2023-04-06T07:48:20.819Z,326
2023-04-06T07:50:29.647Z,325
2023-04-06T07:52:39.947Z,326
2023-04-06T07:54:47.397Z,326
2023-04-06T07:56:53.663Z,326
2023-04-06T07:59:00.516Z,326
2023-04-06T08:01:07.774Z,326
2023-04-06T08:03:15.874Z,326
2023-04-06T08:05:24.993Z,326
2023-04-06T08:07:32.083Z,326
2023-04-06T08:09:38.672Z,325
2023-04-06T08:11:45.593Z,326
2023-04-06T08:13:54.387Z,326
2023-04-06T08:16:01.603Z,326
2023-04-06T08:18:08.764Z,325
2023-04-06T08:20:15.977Z,326
2023-04-06T08:22:23.867Z,326
2023-04-06T08:24:30.332Z,326
2023-04-06T08:26:37.621Z,326
2023-04-06T08:28:48.675Z,325
2023-04-06T08:30:56.213Z,326
2023-04-06T08:33:03.405Z,326
2023-04-06T08:35:11.452Z,326
2023-04-06T08:37:19.510Z,326
2023-04-06T08:39:26.720Z,326
2023-04-06T08:41:33.401Z,326
2023-04-06T08:43:41.036Z,326
2023-04-06T08:45:48.894Z,326
2023-04-06T08:47:57.402Z,326
2023-04-06T08:50:05.287Z,326
2023-04-06T08:52:12.947Z,326
2023-04-06T08:54:19.555Z,326
2023-04-06T08:56:28.233Z,325
2023-04-06T08:58:41.624Z,326
2023-04-06T09:00:48.503Z,325
2023-04-06T09:02:57.250Z,326
2023-04-06T09:05:05.996Z,326
2023-04-06T09:07:14.025Z,326
2023-04-06T09:09:24.735Z,326
2023-04-06T09:11:32.806Z,326
2023-04-06T09:13:40.832Z,326
2023-04-06T09:15:48.454Z,326
2023-04-06T09:17:57.298Z,326
2023-04-06T09:20:05.390Z,326
2023-04-06T09:22:13.647Z,325
2023-04-06T09:24:21.249Z,326
2023-04-06T09:26:29.111Z,326
2023-04-06T09:28:36.698Z,326
2023-04-06T09:30:46.129Z,326
2023-04-06T09:32:55.064Z,326
2023-04-06T09:35:03.580Z,326
2023-04-06T09:37:10.610Z,326
2023-04-06T09:39:18.142Z,326
2023-04-06T09:41:25.986Z,326
2023-04-06T09:43:33.537Z,326
2023-04-06T09:45:40.726Z,326
2023-04-06T09:47:49.047Z,326
2023-04-06T09:49:56.599Z,325
2023-04-06T09:52:03.123Z,325
2023-04-06T09:54:11.863Z,326
2023-04-06T09:56:20.333Z,326
2023-04-06T09:58:28.150Z,326
2023-04-06T10:00:35.632Z,325
2023-04-06T10:02:43.442Z,326
2023-04-06T10:04:51.404Z,326
2023-04-06T10:06:58.391Z,326
2023-04-06T10:09:04.872Z,326
2023-04-06T10:11:11.729Z,326
2023-04-06T10:13:19.535Z,326
2023-04-06T10:15:27.924Z,326
2023-04-06T10:17:36.404Z,326
2023-04-06T10:19:43.782Z,326
2023-04-06T10:21:51.130Z,326
2023-04-06T10:23:58.951Z,326
2023-04-06T10:26:06.139Z,326
2023-04-06T10:28:13.999Z,326
2023-04-06T10:30:22.272Z,326
2023-04-06T10:32:29.871Z,326
2023-04-06T10:34:37.412Z,326
2023-04-06T10:36:45.067Z,326
2023-04-06T10:38:52.429Z,326
2023-04-06T10:41:00.076Z,326
2023-04-06T10:43:07.647Z,326
2023-04-06T10:45:15.181Z,326
2023-04-06T10:47:25.293Z,326
2023-04-06T10:49:33.654Z,326
2023-04-06T10:51:42.068Z,326
2023-04-06T10:54:12.548Z,326
2023-04-06T10:56:20.118Z,326
2023-04-06T10:58:27.932Z,326
2023-04-06T11:00:53.528Z,326
2023-04-06T11:03:01.624Z,326
2023-04-06T11:05:11.290Z,326
2023-04-06T11:07:18.858Z,326
2023-04-06T11:09:26.614Z,326
2023-04-06T11:11:34.200Z,326
2023-04-06T11:13:42.177Z,326
2023-04-06T11:15:48.982Z,326
2023-04-06T11:17:58.115Z,326
2023-04-06T11:20:05.532Z,326
2023-04-06T11:22:12.728Z,326
2023-04-06T11:24:20.784Z,326
2023-04-06T11:26:29.551Z,326
2023-04-06T11:28:36.710Z,326
2023-04-06T11:30:43.913Z,326
2023-04-06T11:32:51.238Z,326
2023-04-06T11:34:59.589Z,325
2023-04-06T11:37:07.255Z,326
2023-04-06T11:39:14.639Z,325
2023-04-06T11:41:22.332Z,326
2023-04-06T11:43:29.133Z,325
2023-04-06T11:45:37.200Z,326
2023-04-06T11:47:47.163Z,326
2023-04-06T11:49:54.841Z,326
2023-04-06T11:52:01.933Z,326
2023-04-06T11:54:08.621Z,326
2023-04-06T11:56:16.476Z,326
2023-04-06T11:58:24.349Z,326
2023-04-06T12:00:31.848Z,325
2023-04-06T12:02:39.397Z,325
2023-04-06T12:04:47.077Z,325
2023-04-06T12:06:54.411Z,326
2023-04-06T12:09:02.151Z,325
2023-04-06T12:11:09.327Z,326
2023-04-06T12:13:17.017Z,326
2023-04-06T12:15:23.256Z,326
2023-04-06T12:17:29.717Z,326
2023-04-06T12:19:36.884Z,326
2023-04-06T12:21:43.940Z,325
2023-04-06T12:23:51.784Z,309
2023-04-06T12:25:59.186Z,309
2023-04-06T12:28:05.485Z,308
2023-04-06T12:30:14.228Z,309
2023-04-06T12:32:21.207Z,308
2023-04-06T12:34:28.316Z,309
2023-04-06T12:36:35.508Z,309
2023-04-06T12:38:42.745Z,308
2023-04-06T12:40:49.746Z,309
2023-04-06T12:42:57.908Z,308
2023-04-06T12:45:05.085Z,308
2023-04-06T12:47:27.138Z,308
2023-04-06T12:49:35.748Z,308
2023-04-06T12:51:43.103Z,308
2023-04-06T12:53:50.924Z,308
2023-04-06T12:55:57.793Z,309
2023-04-06T12:58:05.340Z,309
2023-04-06T13:00:13.824Z,308
2023-04-06T13:02:22.354Z,309
2023-04-06T13:04:29.503Z,308
2023-04-06T13:06:37.088Z,308
2023-04-06T13:08:45.510Z,308
2023-04-06T13:10:53.378Z,308
2023-04-06T13:13:01.395Z,309
2023-04-06T13:15:10.481Z,308
2023-04-06T13:17:27.028Z,309
2023-04-06T13:19:42.299Z,309
2023-04-06T13:22:16.087Z,308
2023-04-06T13:24:45.640Z,309
2023-04-06T13:36:10.130Z,309
2023-04-06T13:38:42.816Z,310
2023-04-06T13:42:04.524Z,310
2023-04-06T13:44:33.300Z,309
2023-04-06T13:49:51.259Z,309
2023-04-06T13:52:13.307Z,309
2023-04-06T14:00:31.208Z,309
2023-04-06T14:02:39.031Z,309
2023-04-06T14:04:46.699Z,309
2023-04-06T14:07:07.945Z,309
2023-04-06T14:09:24.026Z,309
2023-04-06T14:11:37.269Z,309
2023-04-06T14:13:52.387Z,309
2023-04-06T14:16:11.369Z,309
2023-04-06T14:18:28.064Z,309
2023-04-06T14:20:57.273Z,309
2023-04-06T14:23:24.496Z,309
2023-04-06T14:25:44.631Z,309
2023-04-06T14:28:10.166Z,309
2023-04-06T14:30:29.998Z,309
2023-04-06T14:33:00.378Z,309
2023-04-06T14:35:37.081Z,309
2023-04-06T14:37:56.281Z,309
2023-04-06T14:40:12.422Z,309
2023-04-06T14:42:28.103Z,309
2023-04-06T14:44:38.659Z,309
2023-04-06T14:49:49.532Z,309
2023-04-06T14:52:17.239Z,309
2023-04-06T14:54:30.577Z,310
2023-04-06T14:56:39.907Z,309
2023-04-06T14:58:52.094Z,309
2023-04-06T15:01:15.521Z,309
2023-04-06T15:03:27.790Z,309
2023-04-06T15:05:39.194Z,310
2023-04-06T15:07:58.036Z,309
2023-04-06T15:10:19.040Z,308
2023-04-06T15:12:28.834Z,309
2023-04-06T15:14:41.117Z,307
2023-04-06T15:17:03.649Z,309
2023-04-06T15:19:12.689Z,309
2023-04-06T15:21:23.641Z,309
2023-04-06T15:23:39.979Z,309
2023-04-06T15:29:11.908Z,309
2023-04-06T15:46:11.663Z,309
2023-04-06T15:48:37.243Z,310
2023-04-06T15:50:47.012Z,310
2023-04-06T15:53:05.272Z,310
2023-04-06T15:55:19.966Z,309
2023-04-06T16:00:18.958Z,310
2023-04-06T16:02:29.041Z,309
2023-04-06T16:04:43.198Z,308
2023-04-06T16:06:54.334Z,309
2023-04-06T16:09:07.382Z,310
2023-04-06T16:11:18.431Z,309
2023-04-06T16:13:30.907Z,310
2023-04-06T16:15:42.226Z,310
2023-04-06T16:17:53.178Z,309
2023-04-06T16:20:03.749Z,310
2023-04-06T16:22:18.396Z,310
2023-04-06T16:24:26.935Z,310
2023-04-06T16:26:36.565Z,310
2023-04-06T16:28:45.028Z,309
2023-04-06T16:31:02.764Z,310
2023-04-06T16:33:14.227Z,310
2023-04-06T16:35:25.841Z,310
2023-04-06T16:37:36.724Z,310
2023-04-06T16:39:44.949Z,310
2023-04-06T16:41:54.713Z,310
2023-04-06T16:44:03.996Z,310
2023-04-06T16:46:12.634Z,312
2023-04-06T16:48:21.317Z,312
2023-04-06T16:50:45.807Z,312
2023-04-06T16:52:54.937Z,312
2023-04-06T16:55:03.087Z,312
2023-04-06T16:59:22.078Z,312
2023-04-06T17:01:35.463Z,310
2023-04-06T17:03:50.211Z,312
2023-04-06T17:05:58.969Z,312
2023-04-06T17:08:21.260Z,312
2023-04-06T17:10:58.924Z,310
2023-04-06T17:13:15.909Z,312
2023-04-06T17:15:23.940Z,310
2023-04-06T17:17:33.857Z,310
2023-04-06T17:19:43.356Z,310
2023-04-06T17:21:55.467Z,310
2023-04-06T17:24:05.476Z,310
2023-04-06T17:26:14.616Z,310
2023-04-06T17:28:36.952Z,310
2023-04-06T17:30:45.290Z,310
2023-04-06T17:32:53.475Z,312
2023-04-06T17:35:02.637Z,312
2023-04-06T17:37:11.726Z,310
2023-04-06T17:39:22.215Z,310
2023-04-06T17:41:30.900Z,310
2023-04-06T17:43:40.834Z,310
2023-04-06T17:45:48.991Z,310
2023-04-06T17:47:59.645Z,310
2023-04-06T17:50:08.352Z,312
2023-04-06T17:52:19.137Z,310
2023-04-06T17:54:27.146Z,310
2023-04-06T17:56:37.954Z,310
2023-04-06T17:58:48.754Z,312
2023-04-06T18:00:57.395Z,310
2023-04-06T18:03:06.393Z,310
2023-04-06T18:05:15.352Z,310
2023-04-06T18:07:24.168Z,312
2023-04-06T18:09:33.343Z,310
2023-04-06T18:11:42.870Z,310
2023-04-06T18:13:52.426Z,310
2023-04-06T18:16:00.357Z,310
2023-04-06T18:18:09.032Z,309
2023-04-06T18:20:20.161Z,309
2023-04-06T18:22:28.028Z,309
2023-04-06T18:24:46.377Z,310
2023-04-06T18:26:54.142Z,310
2023-04-06T18:29:02.309Z,310
2023-04-06T18:31:11.522Z,310
2023-04-06T18:33:19.761Z,309
2023-04-06T18:35:28.181Z,309
2023-04-06T18:37:36.338Z,309
2023-04-06T18:39:43.882Z,309
2023-04-06T18:41:52.319Z,309
2023-04-06T18:44:00.793Z,309
2023-04-06T18:46:08.471Z,309
2023-04-06T18:48:16.573Z,309
2023-04-06T18:50:24.800Z,309
2023-04-06T18:52:33.116Z,309
2023-04-06T18:54:41.187Z,309
2023-04-06T18:56:50.955Z,309
2023-04-06T18:59:00.184Z,309
2023-04-06T19:01:09.908Z,309
2023-04-06T19:03:19.234Z,309
2023-04-06T19:05:30.681Z,309
2023-04-06T19:07:39.088Z,309
2023-04-06T19:09:49.980Z,309
2023-04-06T19:11:59.017Z,309
2023-04-06T19:14:07.691Z,309
2023-04-06T19:16:16.026Z,309
2023-04-06T19:18:25.449Z,309
2023-04-06T19:20:35.383Z,309
2023-04-06T19:22:43.956Z,308
2023-04-06T19:24:53.262Z,308
2023-04-06T19:27:02.504Z,309
2023-04-06T19:29:10.524Z,308
2023-04-06T19:31:21.481Z,309
2023-04-06T19:33:30.056Z,308
2023-04-06T19:35:39.556Z,309
2023-04-06T19:37:47.683Z,309
2023-04-06T19:39:58.000Z,309
2023-04-06T19:42:07.168Z,309
2023-04-06T19:44:17.164Z,309
2023-04-06T19:46:27.392Z,309
2023-04-06T19:48:36.898Z,309
2023-04-06T19:50:45.245Z,308
2023-04-06T19:52:52.856Z,308
2023-04-06T19:55:01.370Z,308
2023-04-06T19:57:10.961Z,308
2023-04-06T19:59:20.076Z,296
2023-04-06T20:01:28.217Z,308
2023-04-06T20:03:39.146Z,308
2023-04-06T20:05:46.845Z,308
2023-04-06T20:07:55.189Z,308
2023-04-06T20:10:03.416Z,308
2023-04-06T20:12:11.687Z,308
2023-04-06T20:14:19.558Z,308
2023-04-06T20:16:29.298Z,308
2023-04-06T20:18:37.470Z,307
2023-04-06T20:20:45.005Z,308
2023-04-06T20:22:52.906Z,307
2023-04-06T20:25:00.852Z,308
2023-04-06T20:27:09.688Z,308
2023-04-06T20:29:18.988Z,308
2023-04-06T20:31:27.265Z,308
2023-04-06T20:33:34.638Z,307
2023-04-06T20:35:42.376Z,307
2023-04-06T20:37:52.771Z,308
2023-04-06T20:40:00.774Z,307
2023-04-06T20:42:08.997Z,307
2023-04-06T20:44:19.193Z,308
2023-04-06T20:46:27.622Z,308
2023-04-06T20:48:37.206Z,307
2023-04-06T20:50:44.997Z,307
2023-04-06T20:52:53.712Z,307
2023-04-06T20:55:02.544Z,306
2023-04-06T20:57:09.628Z,306
2023-04-06T20:59:17.774Z,306
2023-04-06T21:01:26.124Z,306
2023-04-06T21:03:34.525Z,306
2023-04-06T21:05:42.472Z,306
2023-04-06T21:07:49.981Z,306
2023-04-06T21:09:58.703Z,305
2023-04-06T21:12:05.823Z,306
2023-04-06T21:14:12.836Z,300
2023-04-06T21:16:20.453Z,304
2023-04-06T21:18:27.537Z,305
2023-04-06T21:20:35.583Z,305
2023-04-06T21:22:43.854Z,306
2023-04-06T21:24:50.412Z,298
2023-04-06T21:26:58.644Z,306
2023-04-06T21:29:06.085Z,306
2023-04-06T21:31:13.176Z,306
2023-04-06T21:33:19.581Z,300
2023-04-06T21:35:27.262Z,293
2023-04-06T21:37:33.654Z,305
2023-04-06T21:39:40.207Z,304
2023-04-06T21:41:46.598Z,306
2023-04-06T21:43:52.968Z,306
2023-04-06T21:46:01.224Z,303
2023-04-06T21:48:07.844Z,303
2023-04-06T21:50:15.010Z,302
2023-04-06T21:52:21.949Z,303
2023-04-06T21:54:28.606Z,302
2023-04-06T21:56:37.055Z,303
2023-04-06T21:58:43.857Z,303
2023-04-06T22:00:50.728Z,303
2023-04-06T22:02:57.996Z,303
2023-04-06T22:05:05.017Z,302
2023-04-06T22:07:12.453Z,302
2023-04-06T22:09:20.307Z,302
2023-04-06T22:11:27.215Z,302
2023-04-06T22:13:33.922Z,302
2023-04-06T22:15:40.485Z,302
2023-04-06T22:17:47.370Z,302
2023-04-06T22:19:54.229Z,302
2023-04-06T22:22:01.364Z,303
2023-04-06T22:24:08.496Z,302
2023-04-06T22:26:15.291Z,302
2023-04-06T22:28:21.833Z,302
2023-04-06T22:30:28.341Z,302
2023-04-06T22:32:35.683Z,302
2023-04-06T22:34:42.707Z,302
2023-04-06T22:36:49.888Z,302
2023-04-06T22:38:56.562Z,302
2023-04-06T22:41:03.449Z,301
2023-04-06T22:43:12.858Z,301
2023-04-06T22:45:19.507Z,301
2023-04-06T22:47:26.308Z,302
2023-04-06T22:49:33.123Z,301
2023-04-06T22:51:40.065Z,302
2023-04-06T22:53:47.106Z,302
2023-04-06T22:55:55.652Z,301
2023-04-06T22:58:02.139Z,301
2023-04-06T23:00:08.938Z,301
2023-04-06T23:02:16.098Z,302
2023-04-06T23:04:23.499Z,301
2023-04-06T23:06:30.547Z,301
2023-04-06T23:08:36.898Z,301
2023-04-06T23:10:43.602Z,301
2023-04-06T23:12:52.726Z,301
2023-04-06T23:14:59.988Z,301
2023-04-06T23:17:06.631Z,301
2023-04-06T23:19:13.313Z,301
2023-04-06T23:21:20.233Z,300
2023-04-06T23:23:28.545Z,301
2023-04-06T23:25:35.464Z,300
2023-04-06T23:27:42.919Z,301
2023-04-06T23:29:50.111Z,301
2023-04-06T23:31:56.705Z,301
2023-04-06T23:34:06.610Z,301
2023-04-06T23:36:13.651Z,301
2023-04-06T23:38:20.987Z,297
2023-04-06T23:40:27.456Z,297
2023-04-06T23:42:35.991Z,301
2023-04-06T23:44:43.232Z,301
2023-04-06T23:46:50.372Z,300
2023-04-06T23:48:57.569Z,300
2023-04-06T23:51:04.143Z,300
2023-04-06T23:53:10.959Z,300
2023-04-06T23:55:17.655Z,300
2023-04-06T23:57:27.106Z,300
2023-04-06T23:59:33.566Z,294
